createdAt,value
2023-10-26T08:35:52.137Z,8.90
2023-10-26T08:40:56.259Z,13.82
2023-10-26T08:46:03.450Z,12.82
2023-10-26T08:51:06.864Z,9.20
2023-10-26T08:56:11.510Z,7.53
2023-10-26T09:01:16.529Z,7.75
2023-10-26T09:06:19.795Z,15.15
2023-10-26T09:11:24.058Z,17.27
2023-10-26T09:16:47.304Z,13.43
2023-10-26T09:21:59.073Z,14.15
2023-10-26T09:27:02.518Z,7.47
2023-10-26T09:32:06.306Z,7.78
2023-10-26T09:37:12.929Z,7.68
2023-10-26T09:42:17.200Z,6.68
2023-10-26T09:47:23.250Z,4.38
2023-10-26T09:52:28.914Z,5.38
2023-10-26T09:57:36.770Z,5.60
2023-10-26T10:02:40.398Z,3.35
2023-10-26T10:07:45.626Z,4.18
2023-10-26T10:12:54.313Z,4.60
2023-10-26T10:18:00.452Z,3.88
2023-10-26T10:23:06.013Z,4.97
2023-10-26T10:28:11.407Z,5.30
2023-10-26T10:33:22.769Z,4.45
2023-10-26T10:38:26.089Z,11.65
2023-10-26T10:43:45.129Z,5.40
2023-10-26T10:49:09.085Z,5.80
2023-10-26T10:54:24.207Z,4.30
2023-10-26T10:59:33.845Z,2.67
2023-10-26T11:04:59.605Z,3.72
2023-10-26T11:10:10.544Z,3.80
2023-10-26T11:15:13.524Z,2.95
2023-10-26T11:20:47.334Z,4.03
2023-10-26T11:25:50.624Z,2.20
2023-10-26T11:30:59.372Z,4.53
2023-10-26T11:36:03.432Z,4.82
2023-10-26T11:41:06.650Z,2.13
2023-10-26T11:46:10.964Z,5.28
2023-10-26T11:51:23.894Z,2.90
2023-10-26T11:56:29.648Z,3.15
2023-10-26T12:01:32.517Z,7.22
2023-10-26T12:06:35.574Z,4.78
2023-10-26T12:11:41.032Z,6.35
2023-10-26T12:16:44.617Z,4.32
2023-10-26T12:21:47.697Z,3.38
2023-10-26T12:26:57.511Z,4.40
2023-10-26T12:32:00.583Z,8.23
2023-10-26T12:37:04.072Z,5.88
2023-10-26T12:42:07.103Z,3.83
2023-10-26T12:47:10.672Z,4.57
2023-10-26T12:52:13.723Z,4.47
2023-10-26T12:57:16.722Z,3.90
2023-10-26T13:02:19.804Z,18.92
2023-10-26T13:07:25.674Z,3.83
2023-10-26T13:12:28.787Z,4.85
2023-10-26T13:17:31.817Z,4.18
2023-10-26T13:22:34.792Z,7.07
2023-10-26T13:27:37.859Z,2.67
2023-10-26T13:32:43.391Z,3.17
2023-10-26T13:37:48.170Z,3.30
2023-10-26T13:47:55.087Z,4.28
2023-10-26T13:52:59.806Z,3.28
2023-10-26T13:58:03.580Z,3.22
2023-10-26T14:03:06.746Z,2.70
2023-10-26T14:08:09.733Z,3.72
2023-10-26T14:13:13.610Z,8.57
2023-10-26T14:18:16.474Z,3.92
2023-10-26T14:23:19.453Z,8.07
2023-10-26T14:28:24.593Z,4.75
2023-10-26T15:39:57.077Z,3.78
2023-10-26T15:45:00.259Z,3.60
2023-10-26T15:50:03.216Z,4.00
2023-10-26T15:55:08.050Z,2.47
2023-10-26T16:00:12.423Z,3.40
2023-10-26T16:05:17.671Z,2.58
2023-10-26T16:10:20.755Z,3.10
2023-10-26T16:15:25.361Z,2.72
2023-10-26T16:20:28.472Z,3.53
2023-10-26T16:25:34.047Z,2.72
2023-10-26T16:30:37.286Z,2.78
2023-10-26T16:35:42.045Z,2.65
2023-10-26T16:40:45.158Z,10.25
2023-10-26T16:45:48.624Z,4.22
2023-10-26T16:50:51.733Z,1.85
2023-10-26T16:55:59.564Z,10.35
2023-10-26T17:01:07.380Z,10.40
2023-10-26T17:06:11.734Z,8.68
2023-10-26T17:11:15.173Z,14.23
2023-10-26T17:16:19.001Z,6.75
2023-10-26T17:21:23.690Z,6.63
2023-10-26T17:26:27.624Z,5.18
2023-10-26T17:31:30.723Z,5.20
2023-10-26T17:36:33.748Z,2.30
2023-10-26T17:41:36.665Z,2.72
2023-10-26T17:46:41.350Z,2.83
2023-10-26T17:51:45.533Z,4.03
2023-10-26T17:56:48.787Z,3.35
2023-10-26T18:01:53.494Z,3.60
2023-10-26T18:06:57.441Z,4.55
2023-10-26T18:12:03.223Z,3.58
2023-10-26T18:17:06.324Z,3.33
2023-10-26T18:22:10.286Z,3.70
2023-10-26T18:27:15.037Z,3.28
2023-10-26T18:32:18.369Z,2.72
2023-10-26T18:37:22.423Z,4.22
2023-10-26T18:42:25.904Z,2.33
2023-10-26T18:47:30.416Z,5.75
2023-10-26T18:52:33.652Z,5.40
2023-10-26T18:57:37.120Z,11.65
2023-10-26T19:02:40.243Z,9.77
2023-10-26T19:07:43.560Z,16.58
2023-10-26T19:12:46.718Z,13.80
2023-10-26T19:17:49.927Z,12.32
2023-10-26T19:22:54.051Z,13.05
2023-10-26T19:27:57.844Z,9.95
2023-10-26T19:33:01.460Z,9.50
2023-10-26T19:38:04.516Z,10.93
2023-10-26T19:43:07.597Z,11.02
2023-10-26T19:48:10.760Z,10.40
2023-10-26T19:53:14.003Z,9.50
2023-10-26T19:58:17.110Z,9.80
2023-10-26T20:03:20.050Z,9.63
2023-10-26T20:08:23.001Z,9.23
2023-10-26T20:13:27.279Z,10.75
2023-10-26T20:18:38.971Z,10.68
2023-10-26T20:23:42.358Z,10.95
2023-10-26T20:28:45.648Z,12.15
2023-10-26T20:33:49.976Z,15.88
2023-10-26T20:38:53.991Z,13.60
2023-10-26T20:43:57.162Z,9.40
2023-10-26T20:49:00.183Z,7.50
2023-10-26T20:54:03.580Z,8.10
2023-10-26T20:59:06.640Z,9.85
2023-10-26T21:04:09.828Z,7.00
2023-10-26T21:09:12.811Z,9.00
2023-10-26T21:14:16.051Z,6.10
2023-10-26T21:19:18.992Z,3.95
2023-10-26T21:24:21.994Z,2.90
2023-10-26T21:29:25.045Z,2.88
2023-10-26T21:34:28.140Z,3.22
2023-10-26T21:39:32.845Z,3.38
2023-10-26T21:44:36.185Z,4.40
2023-10-26T21:49:39.185Z,5.53
2023-10-26T21:54:42.903Z,3.60
2023-10-26T21:59:46.297Z,4.80
2023-10-26T22:04:50.430Z,7.80
2023-10-26T22:09:55.846Z,2.92
2023-10-26T22:14:58.851Z,10.57
2023-10-26T22:20:01.899Z,13.23
2023-10-26T22:25:07.882Z,16.17
2023-10-26T22:30:12.110Z,12.48
2023-10-26T22:35:15.249Z,11.15
2023-10-26T22:40:18.448Z,10.15
2023-10-26T22:45:21.665Z,11.05
2023-10-26T22:50:24.780Z,15.80
2023-10-26T22:55:28.005Z,15.27
2023-10-26T23:00:31.076Z,11.48
2023-10-26T23:05:34.998Z,7.57
2023-10-26T23:15:41.845Z,6.45
2023-10-26T23:20:45.976Z,5.50
2023-10-26T23:25:49.000Z,4.10
2023-10-26T23:30:52.116Z,2.67
2023-10-26T23:35:55.125Z,5.90
2023-10-26T23:40:58.215Z,15.25
2023-10-26T23:46:01.298Z,4.55
2023-10-26T23:51:04.959Z,5.72
2023-10-26T23:56:08.213Z,8.30
